Time;durP1;ratioP1;P1;durP2;ratioP2;P2;SDS_P1;SDS_P2;PMS_P1;PMS_P2;Temp;Humidity;BMP_temperature;BMP_pressure;BME280_temperature;BME280_humidity;BME280_pressure;Samples;Min_cycle;Max_cycle;Signal;HPM_P1;HPM_P2
2022/07/24 00:02:08;;;;;;;36.17;29.13;;;20.00;99.90;;;;;;5154178;27;20027;-78
2022/07/24 00:04:33;;;;;;;37.55;30.70;;;20.00;99.90;;;;;;5153813;27;20022;-78
2022/07/24 00:06:59;;;;;;;42.35;33.25;;;20.00;99.90;;;;;;5154227;27;20042;-78
2022/07/24 00:09:25;;;;;;;37.63;32.08;;;19.90;99.90;;;;;;5152599;27;20035;-78
2022/07/24 00:11:50;;;;;;;42.55;33.25;;;19.80;99.90;;;;;;5154055;27;20023;-78
2022/07/24 00:14:16;;;;;;;48.63;36.53;;;19.70;99.90;;;;;;5152442;27;20022;-71
2022/07/24 00:16:42;;;;;;;47.58;36.22;;;19.70;99.90;;;;;;5152605;27;20023;-70
2022/07/24 00:19:08;;;;;;;77.28;38.33;;;19.50;99.90;;;;;;5153862;27;20093;-77
2022/07/24 00:21:34;;;;;;;74.05;38.92;;;19.40;99.90;;;;;;5153490;27;20050;-78
2022/07/24 00:24:00;;;;;;;98.18;39.60;;;19.40;99.90;;;;;;5153568;27;20076;-77
2022/07/24 00:26:25;;;;;;;45.83;35.97;;;19.40;99.90;;;;;;5153726;27;20361;-78
2022/07/24 00:28:51;;;;;;;47.13;35.53;;;19.30;99.90;;;;;;5063022;27;20022;-71
2022/07/24 00:31:17;;;;;;;47.03;34.47;;;19.30;99.90;;;;;;5048746;28;20029;-78
2022/07/24 00:33:43;;;;;;;38.92;32.55;;;19.30;99.90;;;;;;5047692;28;20028;-77
2022/07/24 00:36:08;;;;;;;41.75;34.90;;;19.30;99.90;;;;;;5047484;28;20066;-70
2022/07/24 00:38:34;;;;;;;42.50;34.15;;;19.20;99.90;;;;;;5048684;28;20025;-71
2022/07/24 00:41:00;;;;;;;49.17;37.05;;;19.20;99.90;;;;;;5048268;28;20040;-70
2022/07/24 00:43:26;;;;;;;48.17;35.88;;;19.20;99.90;;;;;;5048610;28;20022;-71
2022/07/24 00:45:51;;;;;;;42.60;33.47;;;19.10;99.90;;;;;;5048438;28;20033;-78
2022/07/24 00:48:17;;;;;;;43.10;33.85;;;19.10;99.90;;;;;;5048750;27;20073;-77
2022/07/24 00:50:43;;;;;;;44.35;35.22;;;19.10;99.90;;;;;;5048428;28;20482;-77
2022/07/24 00:53:10;;;;;;;41.15;33.65;;;19.10;99.90;;;;;;5049407;28;20051;-70
2022/07/24 00:55:37;;;;;;;37.45;30.15;;;19.10;99.90;;;;;;5084029;27;20067;-71
2022/07/24 00:58:03;;;;;;;38.10;32.75;;;19.00;99.90;;;;;;5157258;27;20027;-77
2022/07/24 01:00:29;;;;;;;43.35;35.58;;;18.90;99.90;;;;;;5157050;27;20023;-70
2022/07/24 01:02:55;;;;;;;48.60;38.03;;;18.90;99.90;;;;;;5157124;27;20072;-71
2022/07/24 01:05:21;;;;;;;53.47;37.92;;;18.80;99.90;;;;;;5157047;27;20045;-71
2022/07/24 01:07:46;;;;;;;47.05;37.70;;;18.80;99.90;;;;;;5157056;27;20535;-70
2022/07/24 01:10:13;;;;;;;52.92;39.55;;;18.80;99.90;;;;;;5156946;27;20023;-77
2022/07/24 01:12:39;;;;;;;53.53;39.85;;;18.80;99.90;;;;;;5156968;27;20483;-77
2022/07/24 01:15:07;;;;;;;53.55;39.55;;;18.70;99.90;;;;;;5156687;27;20484;-77
2022/07/24 01:17:38;;;;;;;49.53;38.50;;;18.60;99.90;;;;;;5156845;27;20381;-71
2022/07/24 01:20:05;;;;;;;48.05;37.70;;;18.60;99.90;;;;;;5156679;27;20023;-77
2022/07/24 01:22:31;;;;;;;49.03;39.65;;;18.60;99.90;;;;;;5155103;27;20050;-78
2022/07/24 01:24:57;;;;;;;49.78;39.20;;;18.60;99.90;;;;;;5156528;27;20448;-71
2022/07/24 01:27:23;;;;;;;51.13;40.67;;;18.50;99.90;;;;;;5128228;27;20096;-77
2022/07/24 01:29:50;;;;;;;51.75;40.50;;;18.50;99.90;;;;;;5051370;28;20060;-71
2022/07/24 01:32:16;;;;;;;58.00;40.63;;;18.60;99.90;;;;;;5051258;28;20048;-70
2022/07/24 01:34:41;;;;;;;51.05;41.45;;;18.60;99.90;;;;;;5051453;28;20502;-77
2022/07/24 01:37:07;;;;;;;50.60;40.17;;;18.60;99.90;;;;;;5050022;28;20478;-70
2022/07/24 01:39:33;;;;;;;52.22;38.22;;;18.60;99.90;;;;;;5051112;28;20470;-77
2022/07/24 01:41:59;;;;;;;43.90;37.05;;;18.60;99.90;;;;;;5051235;28;20508;-77
2022/07/24 01:44:24;;;;;;;49.63;37.53;;;18.60;99.90;;;;;;5051233;28;20072;-70
2022/07/24 01:46:50;;;;;;;47.63;38.53;;;18.60;99.90;;;;;;5050947;28;20036;-71
2022/07/24 01:49:16;;;;;;;51.45;38.97;;;18.50;99.90;;;;;;5051215;28;20479;-72
2022/07/24 01:51:42;;;;;;;47.67;37.08;;;18.50;99.90;;;;;;5049735;27;20025;-78
2022/07/24 01:54:07;;;;;;;45.95;38.25;;;18.50;99.90;;;;;;5051230;28;20370;-77
2022/07/24 01:56:33;;;;;;;44.08;35.80;;;18.40;99.90;;;;;;5126394;27;20475;-71
2022/07/24 01:58:59;;;;;;;47.05;36.22;;;18.40;99.90;;;;;;5156001;27;20071;-77
2022/07/24 02:01:26;;;;;;;45.65;36.60;;;18.30;99.90;;;;;;5155629;27;20023;-77
2022/07/24 02:03:51;;;;;;;43.97;35.72;;;18.30;99.90;;;;;;5155890;27;20027;-77
2022/07/24 02:06:18;;;;;;;44.72;34.13;;;18.20;99.90;;;;;;5154738;27;20444;-70
2022/07/24 02:08:44;;;;;;;44.58;33.60;;;18.10;99.90;;;;;;5155856;27;20444;-77
2022/07/24 02:11:10;;;;;;;41.22;31.88;;;18.10;99.90;;;;;;5154299;27;20422;-77
2022/07/24 02:13:36;;;;;;;34.97;30.98;;;18.10;99.90;;;;;;5155988;27;20044;-77
2022/07/24 02:16:02;;;;;;;36.95;30.17;;;18.00;99.90;;;;;;5154358;27;20026;-77
2022/07/24 02:18:28;;;;;;;36.78;29.70;;;18.00;99.90;;;;;;5155527;27;20063;-71
2022/07/24 02:20:54;;;;;;;39.80;31.80;;;17.90;99.90;;;;;;5155348;27;20034;-71
2022/07/24 02:23:20;;;;;;;40.35;32.38;;;17.90;99.90;;;;;;5155667;27;20047;-71
2022/07/24 02:25:47;;;;;;;34.63;29.23;;;17.90;99.90;;;;;;5155188;27;20030;-71
2022/07/24 02:28:13;;;;;;;35.47;30.38;;;17.80;99.90;;;;;;5140978;27;20388;-72
2022/07/24 02:30:39;;;;;;;37.17;29.23;;;17.80;99.90;;;;;;5133398;27;20077;-71
2022/07/24 02:33:05;;;;;;;34.22;28.95;;;17.80;99.90;;;;;;5134627;27;20019;-77
2022/07/24 02:35:31;;;;;;;35.65;30.08;;;17.70;99.90;;;;;;5134558;27;20373;-77
2022/07/24 02:37:56;;;;;;;33.53;28.17;;;17.70;99.90;;;;;;5134425;27;20770;-70
2022/07/24 02:40:22;;;;;;;38.28;29.65;;;17.60;99.90;;;;;;5134252;27;20016;-77
2022/07/24 02:42:48;;;;;;;39.58;29.63;;;17.60;99.90;;;;;;5134187;27;20019;-77
2022/07/24 02:45:14;;;;;;;33.15;29.27;;;17.50;99.90;;;;;;5134301;27;20442;-77
2022/07/24 02:47:48;;;;;;;32.15;27.33;;;17.50;99.90;;;;;;5134375;27;20464;-77
2022/07/24 02:50:14;;;;;;;36.92;29.58;;;17.50;99.90;;;;;;5134037;27;20098;-71
2022/07/24 02:52:39;;;;;;;33.72;26.67;;;17.50;99.90;;;;;;5134106;27;20102;-77
2022/07/24 02:55:05;;;;;;;33.50;27.17;;;17.50;99.90;;;;;;5136708;27;20037;-72
2022/07/24 02:57:31;;;;;;;34.28;27.05;;;17.50;99.90;;;;;;5154649;27;20019;-77
2022/07/24 02:59:57;;;;;;;33.88;26.05;;;17.50;99.90;;;;;;5154895;27;20126;-72
2022/07/24 03:02:22;;;;;;;31.42;24.35;;;17.40;99.90;;;;;;5154786;27;20030;-77
2022/07/24 03:04:48;;;;;;;27.05;22.45;;;17.40;99.90;;;;;;5154519;27;20023;-77
2022/07/24 03:07:14;;;;;;;34.25;23.52;;;17.30;99.90;;;;;;5154668;27;20023;-77
2022/07/24 03:09:40;;;;;;;32.38;23.77;;;17.30;99.90;;;;;;5154779;27;20030;-70
2022/07/24 03:12:06;;;;;;;29.83;22.70;;;17.20;99.90;;;;;;5153158;27;20019;-70
2022/07/24 03:14:32;;;;;;;28.10;22.65;;;17.20;99.90;;;;;;5154659;27;20028;-71
2022/07/24 03:16:57;;;;;;;28.70;22.25;;;17.20;99.90;;;;;;5152857;27;20023;-71
2022/07/24 03:19:23;;;;;;;30.80;23.15;;;17.10;99.90;;;;;;5154619;27;20384;-71
2022/07/24 03:21:49;;;;;;;29.92;23.15;;;17.10;99.90;;;;;;5154005;27;20448;-70
2022/07/24 03:24:15;;;;;;;28.75;22.08;;;17.10;99.90;;;;;;5153290;27;20023;-71
2022/07/24 03:26:41;;;;;;;26.73;21.90;;;17.00;99.90;;;;;;5152709;27;20042;-77
2022/07/24 03:29:06;;;;;;;29.08;23.58;;;17.00;99.90;;;;;;5049488;28;20467;-71
2022/07/24 03:31:32;;;;;;;32.03;22.52;;;16.90;99.90;;;;;;5049307;28;20518;-77
2022/07/24 03:33:58;;;;;;;33.15;23.17;;;16.90;99.90;;;;;;5049465;28;20062;-77
2022/07/24 03:36:23;;;;;;;27.67;22.48;;;16.90;99.90;;;;;;5049463;28;20052;-76
2022/07/24 03:38:49;;;;;;;28.15;21.58;;;16.90;99.90;;;;;;5049397;28;20043;-71
2022/07/24 03:41:15;;;;;;;28.55;21.27;;;17.00;99.90;;;;;;5049574;28;20021;-77
2022/07/24 03:43:40;;;;;;;25.02;20.05;;;17.00;99.90;;;;;;5048194;28;20074;-71
2022/07/24 03:46:06;;;;;;;28.00;20.95;;;17.00;99.90;;;;;;5049196;28;20029;-77
2022/07/24 03:48:32;;;;;;;31.30;21.90;;;17.10;99.90;;;;;;5049402;28;20025;-72
2022/07/24 03:50:58;;;;;;;25.92;19.55;;;17.20;99.90;;;;;;5049352;28;20066;-77
2022/07/24 03:53:23;;;;;;;25.83;18.58;;;17.20;99.90;;;;;;5049353;28;20437;-72
2022/07/24 03:55:52;;;;;;;24.98;19.00;;;17.30;99.90;;;;;;5096226;27;20026;-77
2022/07/24 03:58:18;;;;;;;22.95;17.40;;;17.30;99.90;;;;;;5153925;27;20503;-70
2022/07/24 04:00:43;;;;;;;24.30;17.85;;;17.40;99.90;;;;;;5154011;27;20054;-77
2022/07/24 04:03:09;;;;;;;24.17;18.48;;;17.40;99.90;;;;;;5152654;27;20480;-77
2022/07/24 04:05:35;;;;;;;22.98;18.60;;;17.50;99.90;;;;;;5154098;27;20041;-71
2022/07/24 04:08:00;;;;;;;22.95;17.42;;;17.40;99.90;;;;;;5152671;27;20030;-72
2022/07/24 04:10:26;;;;;;;22.27;17.48;;;17.40;99.90;;;;;;5152842;27;20021;-77
2022/07/24 04:12:52;;;;;;;23.33;16.52;;;17.40;99.90;;;;;;5152458;27;20023;-71
2022/07/24 04:15:17;;;;;;;28.80;18.48;;;17.50;99.90;;;;;;5153959;27;20023;-77
2022/07/24 04:17:43;;;;;;;22.13;18.05;;;17.50;99.90;;;;;;5153850;27;20098;-71
2022/07/24 04:20:10;;;;;;;22.20;18.58;;;17.60;99.90;;;;;;5153822;27;20019;-77
2022/07/24 04:22:36;;;;;;;22.00;17.05;;;17.70;99.90;;;;;;5153486;27;20058;-76
2022/07/24 04:25:02;;;;;;;22.67;17.35;;;17.70;99.90;;;;;;5153704;27;20050;-71
2022/07/24 04:27:28;;;;;;;24.38;18.00;;;17.80;99.90;;;;;;5116426;27;20029;-77
2022/07/24 04:29:54;;;;;;;20.45;16.60;;;17.80;99.90;;;;;;5052240;28;20100;-71
2022/07/24 04:32:19;;;;;;;24.15;17.30;;;18.00;99.90;;;;;;5052324;28;20057;-71
2022/07/24 04:34:45;;;;;;;22.75;17.33;;;18.00;99.90;;;;;;5052384;28;20032;-73
2022/07/24 04:37:11;;;;;;;25.80;17.83;;;18.10;99.90;;;;;;5052170;28;20033;-77
2022/07/24 04:39:37;;;;;;;25.02;16.73;;;18.30;99.90;;;;;;5051056;28;20025;-77
2022/07/24 04:42:03;;;;;;;19.92;15.32;;;18.40;99.90;;;;;;5051018;28;20035;-71
2022/07/24 04:44:28;;;;;;;23.95;16.63;;;18.50;99.90;;;;;;5051969;28;20523;-71
2022/07/24 04:46:54;;;;;;;21.95;16.27;;;18.60;99.90;;;;;;5050688;28;20037;-77
2022/07/24 04:49:19;;;;;;;22.20;15.40;;;18.60;99.90;;;;;;5050857;28;20017;-72
2022/07/24 04:51:45;;;;;;;19.55;14.75;;;18.60;99.90;;;;;;5052047;28;20489;-71
2022/07/24 04:54:11;;;;;;;16.70;13.25;;;18.50;99.90;;;;;;5051889;28;20474;-78
2022/07/24 04:56:36;;;;;;;18.27;14.00;;;18.70;99.90;;;;;;5050608;28;20482;-71
2022/07/24 04:59:02;;;;;;;20.25;15.15;;;18.70;99.90;;;;;;5050655;28;20423;-77
2022/07/24 05:01:28;;;;;;;21.60;13.95;;;18.70;99.90;;;;;;5051863;28;20109;-77
2022/07/24 05:03:56;;;;;;;22.52;16.55;;;18.80;99.90;;;;;;5052081;28;20043;-71
2022/07/24 05:06:23;;;;;;;18.30;14.60;;;18.50;99.90;;;;;;5051470;28;20439;-71
2022/07/24 05:08:48;;;;;;;21.98;16.17;;;18.60;99.90;;;;;;5050065;28;20045;-71
2022/07/24 05:11:14;;;;;;;19.65;15.63;;;18.50;99.90;;;;;;5051504;28;20114;-71
2022/07/24 05:13:40;;;;;;;24.25;15.95;;;18.50;99.90;;;;;;5051812;28;20435;-77
2022/07/24 05:16:06;;;;;;;21.67;14.48;;;18.40;99.90;;;;;;5051706;28;20025;-77
2022/07/24 05:18:31;;;;;;;20.55;14.10;;;18.40;99.90;;;;;;5051676;28;20022;-77
2022/07/24 05:20:57;;;;;;;19.38;13.57;;;18.40;99.90;;;;;;5051399;28;20103;-76
2022/07/24 05:23:23;;;;;;;17.13;12.82;;;18.60;99.90;;;;;;5050421;28;20049;-71
2022/07/24 05:25:48;;;;;;;20.05;14.02;;;18.60;99.90;;;;;;5051435;28;20037;-77
2022/07/24 05:28:14;;;;;;;19.00;13.05;;;18.70;99.90;;;;;;5050061;28;20036;-71
2022/07/24 05:30:40;;;;;;;21.25;13.90;;;18.70;99.90;;;;;;5051648;28;20424;-77
2022/07/24 05:33:06;;;;;;;20.33;14.13;;;18.50;99.90;;;;;;5051316;28;20028;-76
2022/07/24 05:35:31;;;;;;;16.92;12.90;;;18.40;99.90;;;;;;5042241;27;20029;-72
2022/07/24 05:37:57;;;;;;;18.38;12.55;;;18.30;99.90;;;;;;5049776;28;20097;-71
2022/07/24 05:40:23;;;;;;;19.35;12.55;;;18.40;99.90;;;;;;5132021;27;20023;-77
2022/07/24 05:42:49;;;;;;;17.05;12.55;;;18.40;99.90;;;;;;5148286;27;20067;-71
2022/07/24 05:45:14;;;;;;;14.77;12.70;;;18.50;99.90;;;;;;5131363;27;20034;-77
2022/07/24 05:47:41;;;;;;;12.90;10.63;;;18.70;99.90;;;;;;5111156;27;20112;-77
2022/07/24 05:50:12;;;;;;;15.05;11.38;;;18.80;99.90;;;;;;5130124;27;20019;-77
2022/07/24 05:52:37;;;;;;;13.27;10.65;;;18.80;99.90;;;;;;5140776;27;20031;-77
2022/07/24 05:55:04;;;;;;;15.43;10.95;;;18.80;99.90;;;;;;5087572;27;20056;-77
2022/07/24 05:57:30;;;;;;;13.50;9.60;;;19.00;99.90;;;;;;5155712;27;20391;-77
2022/07/24 05:59:56;;;;;;;14.75;9.90;;;19.00;99.90;;;;;;5155700;27;20029;-77
2022/07/24 06:02:21;;;;;;;13.90;10.68;;;19.00;99.90;;;;;;5127174;27;20018;-77
2022/07/24 06:04:47;;;;;;;13.73;9.93;;;19.00;99.90;;;;;;5152675;27;20023;-77
2022/07/24 06:07:13;;;;;;;12.00;9.48;;;19.20;99.90;;;;;;5155713;27;20054;-77
2022/07/24 06:09:39;;;;;;;13.48;9.05;;;19.40;99.90;;;;;;5082827;27;20389;-78
2022/07/24 06:12:05;;;;;;;15.85;10.77;;;19.40;99.90;;;;;;5155740;27;20106;-71
2022/07/24 06:14:32;;;;;;;12.95;9.73;;;19.30;99.90;;;;;;5155450;27;20410;-73
2022/07/24 06:16:57;;;;;;;15.50;10.82;;;19.60;99.90;;;;;;5154753;27;20081;-72
2022/07/24 06:19:23;;;;;;;13.48;9.77;;;19.80;99.90;;;;;;5155291;27;20483;-72
2022/07/24 06:21:49;;;;;;;14.02;10.55;;;20.00;99.90;;;;;;5155208;27;20058;-72
2022/07/24 06:24:15;;;;;;;15.15;10.25;;;20.10;99.90;;;;;;5155384;27;20025;-72
2022/07/24 06:26:40;;;;;;;16.90;10.13;;;20.20;99.90;;;;;;5148938;27;20492;-72
2022/07/24 06:29:06;;;;;;;15.85;9.75;;;20.20;99.90;;;;;;5112224;27;20030;-75
2022/07/24 06:31:32;;;;;;;11.25;8.73;;;20.10;99.90;;;;;;5154509;27;20398;-75
2022/07/24 06:33:57;;;;;;;11.55;8.13;;;20.00;99.90;;;;;;5155251;27;20023;-77
2022/07/24 06:36:23;;;;;;;10.15;8.95;;;20.00;99.90;;;;;;5154932;27;20026;-72
2022/07/24 06:38:49;;;;;;;11.18;8.23;;;20.00;99.90;;;;;;5155104;27;20026;-77
2022/07/24 06:41:14;;;;;;;11.95;8.95;;;20.20;99.90;;;;;;5138837;27;20046;-71
2022/07/24 06:43:40;;;;;;;10.57;8.15;;;20.40;99.90;;;;;;5096912;27;20069;-72
2022/07/24 06:46:06;;;;;;;9.10;7.15;;;20.60;99.90;;;;;;5048187;28;20037;-76
2022/07/24 06:48:32;;;;;;;9.18;7.05;;;20.40;97.70;;;;;;5048936;28;20103;-77
2022/07/24 06:50:59;;;;;;;10.10;7.57;;;20.30;90.10;;;;;;5047846;28;20434;-72
2022/07/24 06:53:24;;;;;;;8.98;7.90;;;20.30;98.30;;;;;;5076290;27;20045;-77
2022/07/24 06:55:53;;;;;;;9.25;8.32;;;20.30;97.50;;;;;;5113290;27;20099;-76
2022/07/24 06:58:19;;;;;;;10.75;7.82;;;20.20;97.20;;;;;;5097073;27;20126;-76
2022/07/24 07:00:45;;;;;;;10.50;7.28;;;20.50;97.70;;;;;;5111031;27;20105;-73
2022/07/24 07:03:11;;;;;;;12.13;7.72;;;20.70;97.60;;;;;;5107256;27;20019;-72
2022/07/24 07:05:37;;;;;;;7.35;6.65;;;20.60;92.40;;;;;;5121054;27;20132;-73
2022/07/24 07:08:02;;;;;;;7.40;6.65;;;20.50;89.90;;;;;;5107128;27;20438;-72
2022/07/24 07:10:28;;;;;;;11.55;7.65;;;20.60;90.80;;;;;;5117712;27;20014;-72
2022/07/24 07:12:54;;;;;;;9.55;6.93;;;20.70;87.00;;;;;;5093793;27;20076;-72
2022/07/24 07:15:20;;;;;;;9.15;6.82;;;20.80;85.10;;;;;;5080804;27;20021;-73
2022/07/24 07:17:45;;;;;;;7.68;6.95;;;21.00;86.20;;;;;;5109805;27;20024;-72
2022/07/24 07:20:12;;;;;;;7.43;6.40;;;21.10;84.10;;;;;;5081326;27;20371;-73
2022/07/24 07:22:39;;;;;;;6.53;5.57;;;21.00;82.70;;;;;;5086167;27;20047;-76
2022/07/24 07:25:06;;;;;;;8.07;6.00;;;20.90;81.10;;;;;;5117645;27;20103;-77
2022/07/24 07:27:31;;;;;;;8.30;6.20;;;20.80;81.70;;;;;;5095397;27;20013;-74
2022/07/24 07:29:57;;;;;;;7.50;6.07;;;20.40;82.60;;;;;;5109666;27;20064;-75
2022/07/24 07:32:22;;;;;;;6.55;5.85;;;20.30;85.90;;;;;;5109806;27;20025;-75
2022/07/24 07:34:48;;;;;;;6.55;5.93;;;20.50;83.70;;;;;;5153409;27;20376;-76
2022/07/24 07:37:14;;;;;;;7.47;5.55;;;20.80;83.50;;;;;;5154039;27;20035;-76
2022/07/24 07:39:40;;;;;;;6.50;5.90;;;21.20;85.60;;;;;;5154148;27;20058;-72
2022/07/24 07:42:05;;;;;;;7.65;5.78;;;21.30;77.20;;;;;;5108680;27;20453;-76
2022/07/24 07:44:31;;;;;;;9.48;5.88;;;21.60;82.50;;;;;;5102777;27;20036;-72
2022/07/24 07:46:57;;;;;;;6.00;5.35;;;21.60;80.00;;;;;;5044714;27;20043;-76
2022/07/24 07:49:22;;;;;;;6.47;5.88;;;21.30;75.70;;;;;;5057823;27;20398;-72
2022/07/24 07:51:51;;;;;;;6.85;6.07;;;21.10;75.80;;;;;;5152708;27;20101;-71
2022/07/24 07:54:17;;;;;;;9.60;5.60;;;20.90;78.70;;;;;;5082144;27;20108;-71
2022/07/24 07:56:43;;;;;;;7.50;6.28;;;20.80;78.60;;;;;;5106497;27;20495;-78
2022/07/24 07:59:09;;;;;;;8.55;5.88;;;21.10;76.90;;;;;;5153330;27;20421;-78
2022/07/24 08:01:35;;;;;;;7.05;5.80;;;21.20;76.30;;;;;;5153690;27;20023;-78
2022/07/24 08:04:01;;;;;;;7.10;5.47;;;21.00;74.70;;;;;;5084585;27;20037;-79
2022/07/24 08:06:27;;;;;;;6.90;5.57;;;21.10;73.40;;;;;;5109791;27;20047;-78
2022/07/24 08:08:52;;;;;;;8.85;5.65;;;21.40;73.40;;;;;;5134479;27;20029;-72
2022/07/24 08:11:18;;;;;;;8.70;5.30;;;21.40;70.10;;;;;;5157961;27;20019;-78
2022/07/24 08:13:44;;;;;;;8.52;5.32;;;21.50;70.40;;;;;;5158016;27;20060;-78
2022/07/24 08:16:10;;;;;;;7.60;5.28;;;21.80;69.40;;;;;;5157393;27;20036;-79
2022/07/24 08:18:36;;;;;;;5.55;5.10;;;21.80;70.10;;;;;;5084853;27;20021;-72
2022/07/24 08:21:02;;;;;;;7.03;5.10;;;21.70;69.70;;;;;;5142164;27;20569;-71
2022/07/24 08:23:28;;;;;;;6.28;5.13;;;21.90;67.90;;;;;;5130099;27;20042;-71
2022/07/24 08:25:54;;;;;;;10.13;5.20;;;21.90;67.70;;;;;;5077926;27;20490;-71
2022/07/24 08:28:22;;;;;;;5.13;4.70;;;22.10;68.40;;;;;;5055288;27;20025;-72
2022/07/24 08:30:49;;;;;;;7.50;6.47;;;22.20;66.10;;;;;;5071164;27;20089;-71
2022/07/24 08:33:14;;;;;;;6.78;5.20;;;22.00;66.80;;;;;;5073827;27;20017;-71
2022/07/24 08:35:40;;;;;;;5.68;4.82;;;21.70;69.30;;;;;;5054862;27;20438;-72
2022/07/24 08:38:06;;;;;;;6.28;5.28;;;21.60;65.50;;;;;;5073226;27;20021;-71
2022/07/24 08:40:34;;;;;;;8.75;5.32;;;21.90;65.40;;;;;;5098621;27;20026;-75
2022/07/24 08:43:00;;;;;;;7.20;5.40;;;22.00;64.50;;;;;;5085507;27;20029;-72
2022/07/24 08:45:27;;;;;;;5.70;5.10;;;22.10;65.20;;;;;;5106986;27;20029;-70
2022/07/24 08:47:54;;;;;;;6.43;4.65;;;22.20;63.50;;;;;;5084146;27;20027;-70
2022/07/24 08:50:20;;;;;;;6.07;4.47;;;22.60;64.90;;;;;;5060984;27;20064;-70
2022/07/24 08:52:47;;;;;;;6.80;5.13;;;22.70;63.80;;;;;;5114441;27;20058;-70
2022/07/24 08:55:13;;;;;;;4.80;4.30;;;22.90;63.10;;;;;;5071261;27;20021;-71
2022/07/24 08:57:38;;;;;;;5.50;5.00;;;23.00;62.40;;;;;;5112936;27;20097;-70
2022/07/24 09:00:05;;;;;;;5.60;5.07;;;22.80;62.70;;;;;;5070162;27;20053;-72
2022/07/24 09:02:30;;;;;;;8.88;5.43;;;22.60;64.30;;;;;;5060374;27;20029;-71
2022/07/24 09:05:01;;;;;;;8.48;5.20;;;22.60;65.20;;;;;;5108435;27;20065;-72
2022/07/24 09:07:29;;;;;;;5.05;4.50;;;22.80;62.80;;;;;;5127264;27;20030;-74
2022/07/24 09:10:16;;;;;;;6.55;4.95;;;23.00;61.10;;;;;;5085902;27;20559;-70
2022/07/24 09:12:47;;;;;;;6.10;4.80;;;23.30;61.50;;;;;;5126070;27;20076;-71
2022/07/24 09:15:18;;;;;;;6.68;4.70;;;23.00;60.60;;;;;;5152712;27;20098;-71
2022/07/24 09:18:02;;;;;;;4.55;4.15;;;23.30;61.40;;;;;;5107762;27;20019;-75
2022/07/24 09:20:28;;;;;;;7.50;4.65;;;23.20;59.30;;;;;;5082647;27;20021;-75
2022/07/24 09:22:57;;;;;;;6.13;4.53;;;23.20;57.80;;;;;;5098892;27;20039;-75
2022/07/24 09:25:28;;;;;;;9.13;4.45;;;23.50;58.60;;;;;;5109361;27;20050;-75
2022/07/24 09:27:55;;;;;;;5.68;4.20;;;23.30;57.10;;;;;;5107633;27;20065;-75
2022/07/24 09:30:37;;;;;;;5.60;5.07;;;23.60;59.40;;;;;;5111583;27;20024;-75
2022/07/24 09:33:18;;;;;;;5.60;4.43;;;23.80;59.70;;;;;;5110388;27;20026;-75
2022/07/24 09:35:51;;;;;;;4.63;4.20;;;23.90;59.90;;;;;;5155665;27;20019;-71
2022/07/24 09:38:20;;;;;;;9.93;4.65;;;24.00;59.30;;;;;;5094764;27;20396;-71
2022/07/24 09:40:50;;;;;;;6.13;4.82;;;24.20;59.00;;;;;;5135869;27;20021;-75
2022/07/24 09:43:16;;;;;;;5.78;5.20;;;24.40;59.90;;;;;;5075811;27;20052;-75
2022/07/24 09:45:53;;;;;;;7.93;4.93;;;24.60;57.20;;;;;;5156296;27;20429;-75
2022/07/24 09:48:22;;;;;;;5.15;4.68;;;24.40;55.50;;;;;;5110038;27;20033;-74
2022/07/24 09:50:54;;;;;;;5.93;5.03;;;24.30;55.50;;;;;;5133662;27;20022;-74
2022/07/24 09:53:22;;;;;;;5.50;4.93;;;24.40;55.00;;;;;;5156591;27;20067;-75
2022/07/24 09:56:07;;;;;;;5.20;4.70;;;24.10;55.20;;;;;;5123678;27;20023;-75
2022/07/24 09:58:38;;;;;;;5.78;5.28;;;24.20;55.80;;;;;;5155731;27;20027;-75
2022/07/24 10:01:07;;;;;;;5.05;4.60;;;24.30;57.90;;;;;;5075329;27;20018;-71
2022/07/24 10:03:35;;;;;;;5.35;4.95;;;24.40;57.50;;;;;;5156243;27;20019;-71
2022/07/24 10:06:03;;;;;;;5.20;4.78;;;24.20;58.00;;;;;;5144447;27;20035;-71
2022/07/24 10:08:31;;;;;;;5.05;4.63;;;23.90;58.80;;;;;;5064200;27;20028;-75
2022/07/24 10:10:57;;;;;;;7.38;5.28;;;24.00;59.40;;;;;;5058842;27;20046;-71
2022/07/24 10:13:30;;;;;;;6.30;5.15;;;23.70;59.90;;;;;;5120037;27;20049;-71
2022/07/24 10:16:12;;;;;;;6.25;5.70;;;23.50;59.00;;;;;;5117329;27;20468;-70
2022/07/24 10:18:52;;;;;;;8.20;5.97;;;23.10;60.30;;;;;;5108931;27;20030;-71
2022/07/24 10:21:24;;;;;;;5.38;4.88;;;23.00;61.40;;;;;;5123955;27;20019;-71
2022/07/24 10:24:07;;;;;;;8.55;5.65;;;23.10;62.20;;;;;;5154765;27;20102;-71
2022/07/24 10:26:50;;;;;;;6.20;5.65;;;23.00;62.30;;;;;;5153783;27;20089;-70
2022/07/24 10:29:18;;;;;;;6.60;5.90;;;22.80;62.90;;;;;;5154424;27;20021;-71
2022/07/24 10:31:48;;;;;;;6.78;6.07;;;23.20;62.30;;;;;;5154685;27;20487;-70
2022/07/24 10:34:19;;;;;;;5.13;4.53;;;23.50;60.00;;;;;;5154832;27;20026;-75
2022/07/24 10:37:04;;;;;;;6.50;5.53;;;24.00;59.10;;;;;;5053759;27;20504;-74
2022/07/24 10:40:02;;;;;;;4.85;4.50;;;24.30;57.70;;;;;;5127580;27;20022;-75
2022/07/24 10:42:28;;;;;;;4.90;4.45;;;24.60;56.00;;;;;;5116305;27;20027;-75
2022/07/24 10:45:17;;;;;;;6.07;5.25;;;24.70;55.00;;;;;;5149215;27;20018;-75
2022/07/24 10:47:44;;;;;;;6.90;6.05;;;24.10;55.80;;;;;;5083390;27;20067;-75
2022/07/24 10:50:11;;;;;;;5.38;4.88;;;23.60;56.10;;;;;;5138926;27;20029;-75
2022/07/24 10:52:39;;;;;;;5.32;4.82;;;23.40;58.30;;;;;;5124606;27;20097;-75
2022/07/24 10:55:26;;;;;;;4.95;4.35;;;23.60;58.30;;;;;;5128694;27;20102;-75
2022/07/24 10:58:21;;;;;;;5.57;4.82;;;23.50;57.90;;;;;;5153705;27;20011;-75
2022/07/24 11:00:49;;;;;;;4.93;4.53;;;23.80;57.80;;;;;;5153841;27;20027;-74
2022/07/24 11:03:32;;;;;;;4.60;4.20;;;24.20;58.00;;;;;;5100935;27;20526;-75
2022/07/24 11:06:07;;;;;;;6.30;4.28;;;24.30;56.70;;;;;;5148968;27;20042;-77
2022/07/24 11:08:40;;;;;;;4.47;4.10;;;24.50;54.70;;;;;;5154096;27;20022;-75
2022/07/24 11:11:18;;;;;;;5.20;3.88;;;24.80;54.00;;;;;;5110472;27;20036;-75
2022/07/24 11:13:49;;;;;;;5.30;3.85;;;24.70;51.60;;;;;;5125472;27;20472;-75
2022/07/24 11:16:15;;;;;;;4.45;3.97;;;24.80;50.70;;;;;;5152486;27;20025;-75
2022/07/24 11:19:01;;;;;;;6.43;3.70;;;24.70;50.70;;;;;;5083354;27;20022;-75
2022/07/24 11:21:35;;;;;;;3.73;3.53;;;24.70;51.40;;;;;;5038882;27;1307017;-75
2022/07/24 11:24:17;;;;;;;4.13;3.83;;;24.80;50.40;;;;;;5075286;27;20053;-75
2022/07/24 11:27:16;;;;;;;4.93;3.92;;;24.90;51.70;;;;;;5097892;27;20045;-77
2022/07/24 11:29:42;;;;;;;4.22;3.83;;;25.10;50.20;;;;;;5068713;27;20027;-77
2022/07/24 11:32:18;;;;;;;4.47;3.55;;;25.30;49.00;;;;;;5114685;27;20020;-76
2022/07/24 11:34:50;;;;;;;4.30;3.35;;;25.50;50.60;;;;;;5058616;27;20040;-76
2022/07/24 11:37:16;;;;;;;3.75;3.45;;;25.50;50.20;;;;;;5154599;27;20053;-77
2022/07/24 11:39:43;;;;;;;3.33;3.03;;;25.60;50.70;;;;;;5083184;27;20019;-77
2022/07/24 11:42:11;;;;;;;4.07;3.08;;;25.30;49.00;;;;;;5153127;27;20472;-76
2022/07/24 11:44:43;;;;;;;4.07;2.90;;;25.70;48.90;;;;;;5138378;27;20017;-76
2022/07/24 11:47:13;;;;;;;2.88;2.67;;;25.60;50.00;;;;;;5154197;27;20042;-76
2022/07/24 11:49:46;;;;;;;3.97;3.67;;;25.20;48.80;;;;;;5057062;27;20029;-76
2022/07/24 11:52:20;;;;;;;3.63;2.92;;;25.20;49.10;;;;;;5115536;27;20023;-76
2022/07/24 11:54:47;;;;;;;3.50;2.95;;;25.30;48.50;;;;;;5058448;27;20446;-76
2022/07/24 11:57:34;;;;;;;4.38;3.30;;;24.80;47.80;;;;;;5121912;27;20468;-76
2022/07/24 12:00:00;;;;;;;3.53;3.22;;;25.00;47.90;;;;;;5154450;27;20055;-77
2022/07/24 12:02:26;;;;;;;5.22;3.45;;;25.20;49.70;;;;;;5082406;27;20118;-77
2022/07/24 12:04:53;;;;;;;2.58;2.38;;;25.20;49.20;;;;;;5154190;27;20027;-76
2022/07/24 12:07:24;;;;;;;2.92;2.70;;;25.40;48.20;;;;;;5154397;27;20034;-77
2022/07/24 12:09:59;;;;;;;3.53;3.17;;;25.30;47.80;;;;;;5096500;27;20048;-76
2022/07/24 12:12:35;;;;;;;4.85;2.80;;;24.80;48.60;;;;;;5080044;27;20042;-77
2022/07/24 12:15:13;;;;;;;4.93;2.65;;;24.60;48.80;;;;;;5082542;27;20025;-76
2022/07/24 12:18:00;;;;;;;3.10;2.55;;;24.70;48.60;;;;;;5154320;27;20018;-77
2022/07/24 12:20:30;;;;;;;4.72;2.47;;;24.60;48.10;;;;;;5146469;27;20037;-71
2022/07/24 12:22:57;;;;;;;3.97;2.92;;;24.80;48.20;;;;;;5154271;27;20087;-71
2022/07/24 12:25:24;;;;;;;5.18;4.20;;;24.70;48.00;;;;;;5069271;27;20037;-71
2022/07/24 12:27:53;;;;;;;3.70;3.40;;;24.70;47.20;;;;;;5153576;27;20019;-71
2022/07/24 12:30:21;;;;;;;2.67;2.47;;;25.10;48.10;;;;;;5050082;27;20021;-76
2022/07/24 12:32:57;;;;;;;2.55;2.05;;;25.20;47.40;;;;;;5047920;28;20025;-71
2022/07/24 12:35:24;;;;;;;2.60;2.40;;;25.10;46.40;;;;;;5035226;28;20115;-76
2022/07/24 12:37:51;;;;;;;2.63;2.13;;;25.30;47.00;;;;;;5126856;27;20029;-76
2022/07/24 12:40:28;;;;;;;2.38;2.28;;;25.40;46.70;;;;;;5108743;27;20139;-72